Time;durP1;ratioP1;P1;durP2;ratioP2;P2;SDS_P1;SDS_P2;PMS_P1;PMS_P2;Temp;Humidity;BMP_temperature;BMP_pressure;BME280_temperature;BME280_humidity;BME280_pressure;Samples;Min_cycle;Max_cycle;Signal;HPM_P1;HPM_P2
2024/01/22 00:00:25;;;;;;;6.20;2.97;;;7.20;99.90;;;;;;5114749;27;20047;-65
2024/01/22 00:02:50;;;;;;;9.43;2.90;;;7.20;99.90;;;;;;5089645;28;20036;-65
2024/01/22 00:05:16;;;;;;;3.67;2.53;;;7.20;99.90;;;;;;5085323;28;20040;-65
2024/01/22 00:07:42;;;;;;;5.57;3.50;;;7.30;99.90;;;;;;5082921;28;20035;-65
2024/01/22 00:10:08;;;;;;;5.45;2.75;;;7.30;99.90;;;;;;5083707;28;20123;-65
2024/01/22 00:12:34;;;;;;;5.13;2.78;;;7.30;99.90;;;;;;5092452;28;20378;-65
2024/01/22 00:15:00;;;;;;;4.88;2.97;;;7.20;99.90;;;;;;5080929;28;20043;-65
2024/01/22 00:17:25;;;;;;;5.05;2.33;;;7.30;99.90;;;;;;5086874;28;20051;-65
2024/01/22 00:19:51;;;;;;;5.82;2.47;;;7.30;99.90;;;;;;5114695;27;20508;-65
2024/01/22 00:22:16;;;;;;;3.95;2.30;;;7.40;99.90;;;;;;5084637;28;20048;-65
2024/01/22 00:24:42;;;;;;;4.18;2.50;;;7.40;99.90;;;;;;5083468;28;20399;-65
2024/01/22 00:27:07;;;;;;;6.25;3.10;;;7.40;99.90;;;;;;5088987;28;20043;-65
2024/01/22 00:29:33;;;;;;;6.63;2.67;;;7.40;99.90;;;;;;5083372;28;20486;-65
2024/01/22 00:31:59;;;;;;;5.32;2.60;;;7.40;99.90;;;;;;5087069;28;20486;-65
2024/01/22 00:34:24;;;;;;;6.47;2.20;;;7.40;99.90;;;;;;5083162;28;20054;-65
2024/01/22 00:36:50;;;;;;;5.38;2.50;;;7.70;99.90;;;;;;5076193;28;20127;-65
2024/01/22 00:39:16;;;;;;;5.32;2.83;;;7.50;99.90;;;;;;5083579;28;20070;-65
2024/01/22 00:41:41;;;;;;;5.13;2.85;;;7.40;99.90;;;;;;5082059;28;20044;-65
2024/01/22 00:44:07;;;;;;;7.57;2.80;;;7.40;99.90;;;;;;5079342;28;20043;-65
2024/01/22 00:46:32;;;;;;;4.93;2.90;;;7.50;99.90;;;;;;5082589;28;20562;-66
2024/01/22 00:48:58;;;;;;;4.85;2.05;;;7.50;99.90;;;;;;5079975;28;20600;-65
2024/01/22 00:51:24;;;;;;;3.55;2.03;;;7.50;99.90;;;;;;5083671;28;20047;-66
2024/01/22 00:53:49;;;;;;;4.97;2.08;;;7.60;99.90;;;;;;5081643;28;20085;-65
2024/01/22 00:56:15;;;;;;;5.68;2.42;;;7.60;99.90;;;;;;5082882;28;20068;-65
2024/01/22 00:58:40;;;;;;;3.90;2.42;;;7.60;99.90;;;;;;5085978;28;20404;-65
2024/01/22 01:01:08;;;;;;;4.93;2.13;;;7.70;99.90;;;;;;5082514;28;20043;-65
2024/01/22 01:03:34;;;;;;;5.78;2.63;;;7.70;99.90;;;;;;5083238;28;20047;-65
2024/01/22 01:05:59;;;;;;;6.35;2.08;;;7.80;99.90;;;;;;5083969;28;20098;-65
2024/01/22 01:08:25;;;;;;;4.20;2.58;;;7.80;99.90;;;;;;5080954;28;20521;-65
2024/01/22 01:10:51;;;;;;;4.78;2.30;;;7.80;99.90;;;;;;5083317;28;20028;-65
2024/01/22 01:13:17;;;;;;;4.95;2.13;;;7.80;99.90;;;;;;5087976;28;20156;-65
2024/01/22 01:15:43;;;;;;;4.82;1.90;;;7.90;99.90;;;;;;5088173;28;20043;-65
2024/01/22 01:18:08;;;;;;;4.20;1.83;;;7.90;99.90;;;;;;5081572;28;20036;-65
2024/01/22 01:20:34;;;;;;;3.20;2.15;;;8.00;99.90;;;;;;5084395;28;20055;-66
2024/01/22 01:23:00;;;;;;;2.38;1.40;;;8.10;99.90;;;;;;5084196;28;20051;-65
2024/01/22 01:25:25;;;;;;;6.47;1.92;;;8.10;99.90;;;;;;5082142;28;20063;-65
2024/01/22 01:27:51;;;;;;;2.58;1.70;;;8.40;99.90;;;;;;5079877;28;20035;-65
2024/01/22 01:30:17;;;;;;;4.25;2.53;;;8.20;99.90;;;;;;5084912;28;20156;-65
2024/01/22 01:32:42;;;;;;;4.43;1.80;;;8.30;99.90;;;;;;5084232;28;20032;-66
2024/01/22 01:35:08;;;;;;;5.20;2.30;;;8.30;99.90;;;;;;5084435;28;20044;-65
2024/01/22 01:37:34;;;;;;;3.13;1.70;;;8.40;99.90;;;;;;5109759;27;20071;-65
2024/01/22 01:39:59;;;;;;;6.13;1.90;;;8.30;99.90;;;;;;5085253;28;20040;-65
2024/01/22 01:42:25;;;;;;;3.80;1.92;;;8.70;99.90;;;;;;5081880;28;20715;-65
2024/01/22 01:44:52;;;;;;;3.22;1.67;;;8.50;99.90;;;;;;5082573;28;20059;-65
2024/01/22 01:47:18;;;;;;;3.45;1.90;;;8.50;99.90;;;;;;5081613;28;20041;-66
2024/01/22 01:49:46;;;;;;;5.32;2.53;;;8.50;99.90;;;;;;5079952;28;20032;-66
2024/01/22 01:52:13;;;;;;;3.97;1.98;;;8.50;99.90;;;;;;5082052;28;20683;-65
2024/01/22 01:54:39;;;;;;;3.03;1.90;;;8.50;99.90;;;;;;5079039;28;20150;-65
2024/01/22 01:57:06;;;;;;;8.25;2.85;;;8.40;99.90;;;;;;5080297;28;20044;-66
2024/01/22 01:59:35;;;;;;;6.97;2.47;;;8.40;99.90;;;;;;5084580;28;20115;-65
2024/01/22 02:02:00;;;;;;;3.88;2.35;;;8.40;99.90;;;;;;5109846;27;20135;-66
2024/01/22 02:04:26;;;;;;;5.78;1.90;;;8.50;99.90;;;;;;5083954;28;20123;-66
2024/01/22 02:06:52;;;;;;;5.13;1.92;;;8.50;99.90;;;;;;5087876;28;20074;-66
2024/01/22 02:09:17;;;;;;;6.90;3.08;;;8.50;99.90;;;;;;5086860;28;20040;-66
2024/01/22 02:11:43;;;;;;;4.85;2.13;;;8.50;99.90;;;;;;5117032;27;20047;-66
2024/01/22 02:14:08;;;;;;;9.88;2.53;;;8.50;99.90;;;;;;5085990;28;20036;-66
2024/01/22 02:16:34;;;;;;;5.78;2.65;;;8.50;99.90;;;;;;5086864;28;20035;-65
2024/01/22 02:19:00;;;;;;;6.05;2.15;;;8.50;99.90;;;;;;5113305;27;20420;-65
2024/01/22 02:21:25;;;;;;;2.95;1.65;;;8.60;99.90;;;;;;5086359;28;20054;-66
2024/01/22 02:23:51;;;;;;;5.40;2.40;;;8.60;99.90;;;;;;5083214;28;20047;-66
2024/01/22 02:26:16;;;;;;;3.67;2.25;;;8.60;99.90;;;;;;5085548;28;20043;-66
2024/01/22 02:28:42;;;;;;;4.13;1.92;;;8.60;99.90;;;;;;5085110;28;20040;-65
2024/01/22 02:31:10;;;;;;;3.42;2.33;;;8.60;99.90;;;;;;5083615;28;20074;-65
2024/01/22 02:33:35;;;;;;;3.88;2.20;;;8.60;99.90;;;;;;5085993;28;20050;-65
2024/01/22 02:36:01;;;;;;;5.43;1.98;;;8.60;99.90;;;;;;5068904;28;20409;-66
2024/01/22 02:38:27;;;;;;;7.05;2.92;;;8.60;99.90;;;;;;5086278;28;20094;-66
2024/01/22 02:40:52;;;;;;;6.63;2.17;;;8.60;99.90;;;;;;5085367;28;20048;-66
2024/01/22 02:43:18;;;;;;;4.55;2.17;;;8.70;99.90;;;;;;5084534;28;20047;-65
2024/01/22 02:45:43;;;;;;;4.28;1.40;;;8.70;99.90;;;;;;5086350;28;20081;-65
2024/01/22 02:48:09;;;;;;;4.25;1.80;;;8.70;99.90;;;;;;5089654;28;20394;-65
2024/01/22 02:50:34;;;;;;;5.65;2.13;;;8.70;99.90;;;;;;5068742;28;20064;-65
2024/01/22 02:53:00;;;;;;;4.88;1.50;;;8.70;99.90;;;;;;5085273;28;20395;-65
2024/01/22 02:55:26;;;;;;;3.28;1.73;;;8.80;99.90;;;;;;5115844;27;20033;-65
2024/01/22 02:57:52;;;;;;;2.80;1.63;;;8.80;99.90;;;;;;5083915;28;20053;-65
2024/01/22 03:00:18;;;;;;;4.05;1.50;;;8.90;99.90;;;;;;5086217;28;20048;-66
2024/01/22 03:02:43;;;;;;;3.15;1.42;;;8.80;99.90;;;;;;5065674;28;20037;-65
2024/01/22 03:05:09;;;;;;;2.47;1.63;;;8.80;99.90;;;;;;5083469;28;20483;-65
2024/01/22 03:07:34;;;;;;;2.97;1.73;;;8.80;99.90;;;;;;5084260;28;20047;-65
2024/01/22 03:10:00;;;;;;;2.55;1.70;;;8.80;99.90;;;;;;5081894;28;20051;-65
2024/01/22 03:12:25;;;;;;;2.65;1.77;;;8.80;99.90;;;;;;5113628;27;20037;-65
2024/01/22 03:14:51;;;;;;;5.45;2.05;;;8.80;99.90;;;;;;5085686;28;20113;-65
2024/01/22 03:17:16;;;;;;;4.45;1.70;;;8.90;99.90;;;;;;5086316;28;20386;-66
2024/01/22 03:19:42;;;;;;;5.60;1.90;;;8.80;99.90;;;;;;5083129;28;20483;-66
2024/01/22 03:22:08;;;;;;;3.65;1.33;;;8.80;99.90;;;;;;5082721;28;20039;-65
2024/01/22 03:24:35;;;;;;;2.13;1.23;;;8.80;99.90;;;;;;5084135;28;20041;-65
2024/01/22 03:27:01;;;;;;;3.70;1.75;;;8.80;99.90;;;;;;5083394;28;20584;-65
2024/01/22 03:29:26;;;;;;;3.38;1.50;;;8.90;99.90;;;;;;5086804;28;20236;-65
2024/01/22 03:31:53;;;;;;;1.73;1.30;;;8.90;99.90;;;;;;5083928;28;20078;-65
2024/01/22 03:34:19;;;;;;;6.47;1.60;;;8.90;99.90;;;;;;5083219;28;20032;-65
2024/01/22 03:36:44;;;;;;;3.53;1.77;;;8.90;99.90;;;;;;5112049;27;20044;-65
2024/01/22 03:39:10;;;;;;;2.95;1.42;;;9.00;99.90;;;;;;5111754;27;20445;-66
2024/01/22 03:41:35;;;;;;;1.63;1.33;;;8.90;99.90;;;;;;5079868;28;20043;-66
2024/01/22 03:44:02;;;;;;;5.60;2.05;;;9.00;99.90;;;;;;5084336;28;20044;-65
2024/01/22 03:46:28;;;;;;;2.55;1.25;;;8.90;99.90;;;;;;5115042;27;20119;-65
2024/01/22 03:48:53;;;;;;;3.45;1.65;;;9.00;99.90;;;;;;5080044;28;20135;-65
2024/01/22 03:51:19;;;;;;;5.60;1.90;;;8.90;99.90;;;;;;5085854;28;20141;-66
2024/01/22 03:53:45;;;;;;;3.28;1.67;;;8.90;99.90;;;;;;5085500;28;20542;-65
2024/01/22 03:56:10;;;;;;;3.33;1.45;;;8.90;99.90;;;;;;5083291;28;20108;-66
2024/01/22 03:58:38;;;;;;;5.57;2.22;;;8.90;99.90;;;;;;5082659;28;20561;-65
2024/01/22 04:01:04;;;;;;;4.05;1.83;;;8.90;99.90;;;;;;5083039;28;20055;-65
2024/01/22 04:03:31;;;;;;;2.72;1.60;;;8.90;99.90;;;;;;5085455;28;20036;-65
2024/01/22 04:05:56;;;;;;;3.35;1.20;;;8.90;99.90;;;;;;5082932;28;20047;-65
2024/01/22 04:08:22;;;;;;;4.43;1.50;;;8.90;99.90;;;;;;5085121;28;20044;-65
2024/01/22 04:10:48;;;;;;;2.90;1.48;;;8.90;99.90;;;;;;5088051;28;20416;-66
2024/01/22 04:13:13;;;;;;;3.88;1.40;;;8.90;99.90;;;;;;5086610;28;20032;-66
2024/01/22 04:15:39;;;;;;;2.35;1.45;;;9.00;99.90;;;;;;5085632;28;20042;-65
2024/01/22 04:18:06;;;;;;;4.90;1.73;;;9.00;99.90;;;;;;5116575;27;20036;-65
2024/01/22 04:20:32;;;;;;;5.43;1.85;;;9.00;99.90;;;;;;5086352;28;20134;-66
2024/01/22 04:22:58;;;;;;;2.63;1.52;;;9.00;99.90;;;;;;5084033;28;20127;-66
2024/01/22 04:25:23;;;;;;;4.10;1.70;;;9.00;99.90;;;;;;5071657;28;20127;-65
2024/01/22 04:27:49;;;;;;;2.17;1.27;;;9.00;99.90;;;;;;5083055;28;20058;-66
2024/01/22 04:30:14;;;;;;;3.95;1.77;;;9.10;99.90;;;;;;5081932;28;20549;-65
2024/01/22 04:32:40;;;;;;;3.78;1.42;;;9.10;99.90;;;;;;5083488;28;20066;-66
2024/01/22 04:35:07;;;;;;;3.03;1.23;;;9.10;99.90;;;;;;5084935;28;20043;-65
2024/01/22 04:37:33;;;;;;;2.20;1.10;;;9.10;99.90;;;;;;5112928;27;20054;-65
2024/01/22 04:40:17;;;;;;;3.05;1.30;;;9.20;99.90;;;;;;5083574;28;20562;-66
2024/01/22 04:42:44;;;;;;;3.22;1.27;;;9.20;99.90;;;;;;5089069;28;20046;-66
2024/01/22 04:45:10;;;;;;;3.08;1.02;;;9.30;99.90;;;;;;5082278;28;20083;-66
2024/01/22 04:47:37;;;;;;;3.30;1.30;;;9.20;99.90;;;;;;5089020;28;20074;-66
2024/01/22 04:50:02;;;;;;;3.53;1.50;;;9.20;99.90;;;;;;5099522;27;20048;-65
2024/01/22 04:52:29;;;;;;;4.95;1.30;;;9.30;99.90;;;;;;5080462;28;20415;-66
2024/01/22 04:54:54;;;;;;;3.15;1.27;;;9.20;99.90;;;;;;5083077;28;20032;-66
2024/01/22 04:57:20;;;;;;;1.27;1.15;;;9.20;99.90;;;;;;5084581;28;20038;-65
2024/01/22 04:59:45;;;;;;;3.15;1.73;;;9.30;99.90;;;;;;5081702;28;20039;-66
2024/01/22 05:02:11;;;;;;;1.77;1.00;;;9.30;99.90;;;;;;5117217;27;20052;-66
2024/01/22 05:04:37;;;;;;;1.33;1.10;;;9.40;99.90;;;;;;5081918;28;20036;-66
2024/01/22 05:07:02;;;;;;;1.25;1.15;;;9.40;99.90;;;;;;5084694;28;20082;-66
2024/01/22 05:09:28;;;;;;;4.45;1.00;;;9.40;99.90;;;;;;5081736;28;20041;-65
2024/01/22 05:11:53;;;;;;;3.15;1.15;;;9.40;99.90;;;;;;5088895;28;20436;-66
2024/01/22 05:14:19;;;;;;;3.20;1.10;;;9.50;99.90;;;;;;5085157;28;20551;-65
2024/01/22 05:16:44;;;;;;;1.75;0.85;;;9.60;99.90;;;;;;5083471;28;20032;-66
2024/01/22 05:19:10;;;;;;;1.63;1.02;;;9.60;99.90;;;;;;5082380;28;20156;-66
2024/01/22 05:21:36;;;;;;;2.35;0.93;;;9.60;99.90;;;;;;5089705;28;20093;-66
2024/01/22 05:24:01;;;;;;;3.13;0.77;;;9.80;99.90;;;;;;5083889;28;20035;-66
2024/01/22 05:26:27;;;;;;;2.10;0.70;;;9.80;99.90;;;;;;5079639;28;20387;-65
2024/01/22 05:28:53;;;;;;;1.67;0.75;;;9.90;99.90;;;;;;5079027;28;20036;-66
2024/01/22 05:31:18;;;;;;;2.22;0.70;;;9.90;99.90;;;;;;5077839;28;20033;-65
2024/01/22 05:33:44;;;;;;;2.03;0.80;;;9.90;99.90;;;;;;5111192;27;20059;-65
2024/01/22 05:36:10;;;;;;;1.05;0.40;;;10.10;99.90;;;;;;5079468;28;20041;-66
2024/01/22 05:38:41;;;;;;;2.60;0.65;;;10.10;99.90;;;;;;5083881;28;20047;-66
2024/01/22 05:41:06;;;;;;;1.80;0.45;;;10.20;99.90;;;;;;5088558;28;20486;-65
2024/01/22 05:43:32;;;;;;;0.77;0.38;;;10.20;99.90;;;;;;5087148;28;20032;-65
2024/01/22 05:45:57;;;;;;;1.33;0.40;;;10.30;99.90;;;;;;5115136;27;20901;-66
2024/01/22 05:48:23;;;;;;;1.35;0.35;;;10.50;99.90;;;;;;5079753;28;20066;-65
2024/01/22 05:50:49;;;;;;;1.13;0.50;;;10.50;99.90;;;;;;5081795;28;20122;-66
2024/01/22 05:53:15;;;;;;;1.15;0.40;;;10.60;99.90;;;;;;5078188;28;20093;-65
2024/01/22 05:55:41;;;;;;;0.50;0.30;;;10.70;99.90;;;;;;5080315;28;20154;-65
2024/01/22 05:58:07;;;;;;;1.63;0.30;;;10.70;99.90;;;;;;5078917;28;20124;-66
2024/01/22 06:00:33;;;;;;;1.10;0.30;;;10.80;99.90;;;;;;5078992;28;20403;-66
2024/01/22 06:02:59;;;;;;;2.08;0.30;;;10.90;99.90;;;;;;5078445;28;20058;-65
2024/01/22 06:05:25;;;;;;;1.50;0.20;;;11.00;99.90;;;;;;5078187;28;20040;-65
2024/01/22 06:07:50;;;;;;;0.90;0.40;;;10.90;99.90;;;;;;5078018;28;20055;-65
2024/01/22 06:10:16;;;;;;;2.25;0.32;;;11.00;99.90;;;;;;5082615;28;20410;-66
2024/01/22 06:12:42;;;;;;;1.88;0.28;;;11.10;99.90;;;;;;5117585;27;20039;-65
2024/01/22 06:15:08;;;;;;;1.20;0.30;;;11.10;99.90;;;;;;5083544;28;20085;-66
2024/01/22 06:17:33;;;;;;;2.35;0.20;;;11.10;99.90;;;;;;5083244;28;20045;-66
2024/01/22 06:20:01;;;;;;;2.05;0.45;;;11.10;99.90;;;;;;5081929;28;20127;-66
2024/01/22 06:22:27;;;;;;;2.03;0.22;;;11.10;99.90;;;;;;5086291;28;20223;-65
2024/01/22 06:24:52;;;;;;;1.15;0.20;;;11.10;99.90;;;;;;5084376;28;20044;-65
2024/01/22 06:27:18;;;;;;;1.70;0.20;;;11.10;99.90;;;;;;5085966;28;20066;-65
2024/01/22 06:29:44;;;;;;;1.05;0.25;;;11.20;99.90;;;;;;5083462;28;20144;-66
2024/01/22 06:32:10;;;;;;;1.35;0.30;;;11.10;99.90;;;;;;5086630;28;20125;-65
2024/01/22 06:34:36;;;;;;;0.85;0.20;;;11.10;99.90;;;;;;5088719;28;20638;-66
2024/01/22 06:37:03;;;;;;;2.22;0.30;;;11.00;99.90;;;;;;5084603;28;20102;-65
2024/01/22 06:39:28;;;;;;;0.90;0.20;;;11.00;99.90;;;;;;5086611;28;20059;-65
2024/01/22 06:41:54;;;;;;;0.65;0.20;;;11.00;99.90;;;;;;5086164;28;20052;-66
2024/01/22 06:44:20;;;;;;;0.60;0.17;;;11.00;99.90;;;;;;5086327;28;20135;-65
2024/01/22 06:46:45;;;;;;;1.50;0.38;;;11.00;99.90;;;;;;5088230;28;20119;-65
2024/01/22 06:49:11;;;;;;;2.58;0.30;;;11.20;99.90;;;;;;5083439;28;20045;-65
2024/01/22 06:51:36;;;;;;;6.15;1.02;;;10.90;99.90;;;;;;5085341;28;20043;-65
2024/01/22 06:54:02;;;;;;;3.33;1.08;;;10.90;99.90;;;;;;5087785;28;20032;-66
2024/01/22 06:56:27;;;;;;;1.50;0.40;;;10.90;99.90;;;;;;5115867;27;20376;-65
2024/01/22 06:58:53;;;;;;;6.68;1.45;;;10.90;99.90;;;;;;5120604;27;20420;-65
2024/01/22 07:01:19;;;;;;;4.47;1.10;;;10.90;99.90;;;;;;5079902;28;20078;-65
2024/01/22 07:03:45;;;;;;;5.55;1.02;;;10.90;99.90;;;;;;5084880;28;20656;-65
2024/01/22 07:06:11;;;;;;;9.85;1.35;;;10.90;99.90;;;;;;5086556;28;20052;-66
2024/01/22 07:08:36;;;;;;;7.65;1.65;;;10.90;99.90;;;;;;5085627;28;20028;-66
2024/01/22 07:11:02;;;;;;;9.90;1.75;;;10.80;99.90;;;;;;5083830;28;20044;-65
2024/01/22 07:13:28;;;;;;;7.95;1.23;;;10.80;99.90;;;;;;5085410;28;20509;-66
2024/01/22 07:15:54;;;;;;;8.98;1.60;;;10.70;99.90;;;;;;5090982;28;20087;-66
2024/01/22 07:18:20;;;;;;;9.70;2.10;;;10.80;99.90;;;;;;5114028;27;20489;-65
2024/01/22 07:20:45;;;;;;;14.57;2.65;;;10.80;99.90;;;;;;5083455;28;20535;-65
2024/01/22 07:23:11;;;;;;;13.25;1.77;;;10.70;99.90;;;;;;5085098;28;20056;-66
2024/01/22 07:25:37;;;;;;;10.40;2.45;;;10.70;99.90;;;;;;5087704;28;20040;-66
2024/01/22 07:28:03;;;;;;;13.05;2.25;;;10.70;99.90;;;;;;5115406;27;20044;-66
2024/01/22 07:30:29;;;;;;;11.95;2.90;;;10.60;99.90;;;;;;5095281;27;20048;-65
2024/01/22 07:32:55;;;;;;;12.10;2.50;;;10.60;99.90;;;;;;5086595;28;20486;-66
2024/01/22 07:35:20;;;;;;;15.15;2.88;;;10.90;99.90;;;;;;5083941;28;20052;-65
2024/01/22 07:37:46;;;;;;;14.85;2.58;;;10.60;99.90;;;;;;5083610;28;20448;-66
2024/01/22 07:40:12;;;;;;;15.27;2.70;;;10.70;99.90;;;;;;5115052;27;20616;-66
2024/01/22 07:42:40;;;;;;;13.48;2.97;;;10.60;99.90;;;;;;5086116;28;20130;-65
2024/01/22 07:45:06;;;;;;;14.95;2.50;;;10.60;99.90;;;;;;5086047;28;20044;-65
2024/01/22 07:47:35;;;;;;;19.67;3.78;;;10.60;99.90;;;;;;5118814;27;20115;-65
2024/01/22 07:50:05;;;;;;;18.92;3.72;;;10.60;99.90;;;;;;5120117;27;20048;-65
2024/01/22 07:52:33;;;;;;;21.45;4.03;;;10.60;99.90;;;;;;5113581;27;20116;-65
2024/01/22 07:54:59;;;;;;;14.00;3.65;;;10.70;99.90;;;;;;5084999;28;20123;-66
2024/01/22 07:57:25;;;;;;;20.08;3.38;;;10.70;99.90;;;;;;5082374;28;20063;-65
2024/01/22 07:59:50;;;;;;;21.83;3.85;;;10.60;99.90;;;;;;5088449;28;20027;-65
2024/01/22 08:02:16;;;;;;;20.48;3.88;;;10.60;99.90;;;;;;5083301;28;20040;-66
2024/01/22 08:04:42;;;;;;;16.83;3.78;;;10.60;99.90;;;;;;5085840;28;20048;-65
2024/01/22 08:07:08;;;;;;;21.75;3.28;;;10.60;99.90;;;;;;5083557;28;20394;-65
2024/01/22 08:09:34;;;;;;;16.95;3.45;;;10.60;99.90;;;;;;5084549;28;20036;-65
2024/01/22 08:11:59;;;;;;;25.25;6.43;;;10.60;99.90;;;;;;5079369;28;20051;-65
2024/01/22 08:14:25;;;;;;;22.55;4.57;;;10.60;99.90;;;;;;5081388;28;20036;-65
2024/01/22 08:16:51;;;;;;;17.95;3.65;;;10.60;99.90;;;;;;5112790;27;20292;-66
2024/01/22 08:19:16;;;;;;;28.00;4.57;;;10.60;99.90;;;;;;5113185;27;20141;-65
2024/01/22 08:21:43;;;;;;;14.73;2.85;;;10.60;99.90;;;;;;5080272;28;20036;-66
2024/01/22 08:24:08;;;;;;;19.30;3.35;;;10.60;99.90;;;;;;5084924;28;20062;-66
2024/01/22 08:26:34;;;;;;;21.63;3.28;;;10.50;99.90;;;;;;5082615;28;20037;-66
2024/01/22 08:29:00;;;;;;;19.67;3.60;;;10.50;99.90;;;;;;5060806;28;20127;-66
2024/01/22 08:31:25;;;;;;;21.15;4.38;;;10.50;99.90;;;;;;5083436;28;20123;-66
2024/01/22 08:33:51;;;;;;;26.80;3.95;;;10.40;99.90;;;;;;5081831;28;20120;-66
2024/01/22 08:36:16;;;;;;;23.00;3.88;;;10.40;99.90;;;;;;5084732;28;20028;-66
2024/01/22 08:38:42;;;;;;;17.52;3.90;;;10.40;99.90;;;;;;5084309;28;20036;-66
2024/01/22 08:41:08;;;;;;;18.15;4.38;;;10.30;99.90;;;;;;5084207;28;20044;-66
2024/01/22 08:43:35;;;;;;;21.85;3.65;;;10.40;99.90;;;;;;5083723;28;20090;-66
2024/01/22 08:46:03;;;;;;;21.42;4.05;;;10.30;99.90;;;;;;5079620;28;20097;-66
2024/01/22 08:48:30;;;;;;;23.30;3.80;;;10.20;99.90;;;;;;5081200;28;20529;-65
2024/01/22 08:50:56;;;;;;;20.52;5.07;;;10.20;99.90;;;;;;5081921;28;20317;-66
2024/01/22 08:53:22;;;;;;;38.35;7.78;;;10.20;99.90;;;;;;5079932;28;20035;-65
2024/01/22 08:55:48;;;;;;;33.72;6.18;;;10.20;99.90;;;;;;5083209;28;20118;-65
2024/01/22 08:58:15;;;;;;;35.05;8.05;;;10.20;99.90;;;;;;5082484;28;20047;-65
2024/01/22 09:00:41;;;;;;;35.20;7.05;;;10.10;99.90;;;;;;5079219;28;20028;-65
2024/01/22 09:03:07;;;;;;;38.20;7.85;;;10.10;99.90;;;;;;5077407;28;20367;-65
2024/01/22 09:05:33;;;;;;;39.83;7.53;;;10.20;99.90;;;;;;5080793;28;20040;-65
2024/01/22 09:08:00;;;;;;;45.92;7.90;;;10.10;99.90;;;;;;5109970;27;20048;-65
2024/01/22 09:10:26;;;;;;;35.78;8.18;;;10.10;99.90;;;;;;5079557;28;20425;-65
2024/01/22 09:12:55;;;;;;;37.25;6.90;;;10.00;99.90;;;;;;5083388;28;20040;-65
2024/01/22 09:15:21;;;;;;;39.85;7.65;;;10.00;99.90;;;;;;5080805;28;20040;-65
2024/01/22 09:17:47;;;;;;;35.60;8.25;;;10.00;99.90;;;;;;5081177;28;20055;-65
2024/01/22 09:20:13;;;;;;;33.08;7.45;;;10.00;99.90;;;;;;5110498;27;20051;-65
2024/01/22 09:22:39;;;;;;;42.15;6.95;;;9.90;99.90;;;;;;5092377;28;20118;-65
2024/01/22 09:25:05;;;;;;;34.50;8.02;;;9.90;99.90;;;;;;5080948;28;20069;-65
2024/01/22 09:27:31;;;;;;;36.28;6.53;;;9.80;99.90;;;;;;5082966;28;20047;-65
2024/01/22 09:29:58;;;;;;;38.20;7.13;;;9.80;99.90;;;;;;5081759;28;20406;-65
2024/01/22 09:32:25;;;;;;;39.88;7.03;;;9.80;99.90;;;;;;5082413;28;20118;-65
2024/01/22 09:34:51;;;;;;;33.55;6.45;;;9.70;99.90;;;;;;5080222;28;20082;-65
2024/01/22 09:37:17;;;;;;;34.15;7.95;;;10.10;99.90;;;;;;5078009;28;20041;-65
2024/01/22 09:39:44;;;;;;;39.03;8.07;;;9.80;99.90;;;;;;5079128;28;20040;-65
2024/01/22 09:42:12;;;;;;;32.78;6.55;;;9.80;99.90;;;;;;5112074;27;20045;-65
2024/01/22 09:44:40;;;;;;;32.53;6.78;;;9.90;99.90;;;;;;5080422;28;20048;-65
2024/01/22 09:47:07;;;;;;;34.75;7.03;;;9.90;99.90;;;;;;5080152;28;20050;-65
2024/01/22 09:49:32;;;;;;;38.83;7.95;;;9.90;99.90;;;;;;5079840;28;20122;-65
2024/01/22 09:51:58;;;;;;;37.42;7.53;;;9.90;99.90;;;;;;5082312;28;20028;-65
2024/01/22 09:54:28;;;;;;;39.22;8.02;;;9.90;99.90;;;;;;5113550;27;20040;-65
2024/01/22 09:56:55;;;;;;;33.95;6.65;;;9.90;99.90;;;;;;5081377;28;20032;-65
2024/01/22 09:59:28;;;;;;;33.38;6.03;;;9.90;99.90;;;;;;5079686;28;20465;-65
2024/01/22 10:01:54;;;;;;;31.67;6.47;;;9.90;99.90;;;;;;5079680;28;20039;-65
2024/01/22 10:04:23;;;;;;;40.95;7.30;;;10.00;99.90;;;;;;5081179;28;20066;-65
2024/01/22 10:06:49;;;;;;;38.17;8.93;;;10.00;99.90;;;;;;5081390;28;20040;-65
2024/01/22 10:09:17;;;;;;;44.42;8.45;;;10.00;99.90;;;;;;5081602;28;20055;-65
2024/01/22 10:11:43;;;;;;;42.63;9.55;;;10.10;99.90;;;;;;5078032;28;20040;-65
2024/01/22 10:14:10;;;;;;;42.90;8.40;;;10.00;99.90;;;;;;5111655;27;20040;-65
2024/01/22 10:16:38;;;;;;;43.20;9.50;;;10.00;99.90;;;;;;5082729;28;20045;-66
2024/01/22 10:19:07;;;;;;;46.10;9.30;;;10.00;99.90;;;;;;5082685;28;20032;-65
2024/01/22 10:21:37;;;;;;;41.42;9.07;;;10.00;99.90;;;;;;5087906;28;20040;-66
2024/01/22 10:24:06;;;;;;;42.83;8.40;;;10.00;99.90;;;;;;5082762;28;20425;-66
2024/01/22 10:26:33;;;;;;;51.88;9.50;;;9.90;99.90;;;;;;5083673;28;20039;-65
2024/01/22 10:29:19;;;;;;;55.97;9.88;;;9.90;99.90;;;;;;5090610;28;20115;-66
2024/01/22 10:31:59;;;;;;;47.72;9.57;;;10.00;99.90;;;;;;5084907;28;20044;-65
2024/01/22 10:34:52;;;;;;;42.35;10.23;;;9.90;99.90;;;;;;5086363;28;20122;-65
2024/01/22 10:37:18;;;;;;;48.42;10.02;;;10.00;99.90;;;;;;5084640;28;20032;-65
2024/01/22 10:39:45;;;;;;;48.90;9.77;;;10.10;99.90;;;;;;5087010;28;20040;-65
2024/01/22 10:42:15;;;;;;;46.67;9.05;;;10.10;99.90;;;;;;5086874;28;20044;-65
2024/01/22 10:44:44;;;;;;;51.28;11.35;;;10.10;99.90;;;;;;5088132;28;20067;-65
2024/01/22 10:47:11;;;;;;;39.45;8.85;;;10.20;99.90;;;;;;5085115;28;20032;-65
2024/01/22 10:49:37;;;;;;;51.03;10.38;;;10.10;99.90;;;;;;5115727;27;20527;-66
2024/01/22 10:52:04;;;;;;;43.58;8.75;;;10.20;99.90;;;;;;5086317;28;20044;-66
2024/01/22 10:54:31;;;;;;;47.17;10.55;;;10.00;99.90;;;;;;5086091;28;20517;-66
2024/01/22 10:57:24;;;;;;;41.60;7.95;;;10.00;99.90;;;;;;5083015;28;20478;-65
2024/01/22 10:59:51;;;;;;;40.80;9.25;;;9.90;99.90;;;;;;5084635;28;20057;-65
2024/01/22 11:02:32;;;;;;;39.00;8.10;;;9.80;99.90;;;;;;5080749;28;20031;-65
2024/01/22 11:05:17;;;;;;;38.70;7.97;;;9.70;99.90;;;;;;5086727;28;20059;-65
2024/01/22 11:07:45;;;;;;;44.37;8.87;;;9.80;99.90;;;;;;5085872;28;20032;-65
2024/01/22 11:10:11;;;;;;;41.35;8.35;;;9.80;99.90;;;;;;5086102;28;20051;-65
2024/01/22 11:12:44;;;;;;;29.02;7.47;;;9.90;99.90;;;;;;5084071;28;20066;-65
2024/01/22 11:15:10;;;;;;;35.38;7.43;;;10.20;99.90;;;;;;5090233;27;20055;-66
2024/01/22 11:17:35;;;;;;;31.00;7.25;;;10.20;99.90;;;;;;5085141;28;20036;-65
2024/01/22 11:20:18;;;;;;;37.60;7.32;;;10.30;99.90;;;;;;5085254;28;20060;-65
2024/01/22 11:23:00;;;;;;;29.25;6.18;;;10.40;99.90;;;;;;5085782;28;20374;-65
2024/01/22 11:25:27;;;;;;;34.40;10.55;;;10.50;99.90;;;;;;5079540;28;20040;-65
2024/01/22 11:28:04;;;;;;;33.63;7.50;;;10.60;99.90;;;;;;5083613;28;20119;-65
2024/01/22 11:30:36;;;;;;;33.95;7.63;;;10.60;99.90;;;;;;5082490;28;20048;-65
2024/01/22 11:33:02;;;;;;;37.00;8.07;;;10.60;99.90;;;;;;5117955;27;20035;-65
2024/01/22 11:35:35;;;;;;;31.48;7.00;;;10.70;99.90;;;;;;5085066;28;20093;-65
2024/01/22 11:38:03;;;;;;;40.65;8.73;;;10.80;99.90;;;;;;5085140;28;20036;-66
2024/01/22 11:40:52;;;;;;;38.72;7.53;;;10.90;99.90;;;;;;5098533;27;20041;-65
2024/01/22 11:43:20;;;;;;;35.80;7.18;;;10.90;99.90;;;;;;5084468;28;20048;-66
2024/01/22 11:45:46;;;;;;;29.35;6.38;;;11.00;99.90;;;;;;5082086;28;20052;-66
2024/01/22 11:48:20;;;;;;;29.35;6.25;;;11.10;99.90;;;;;;5090402;28;20093;-66
2024/01/22 11:51:04;;;;;;;23.88;6.30;;;11.10;99.90;;;;;;5081300;28;20149;-65
2024/01/22 11:53:31;;;;;;;26.90;6.13;;;11.30;99.90;;;;;;5090093;28;20043;-66
2024/01/22 11:56:01;;;;;;;21.33;5.20;;;11.30;99.90;;;;;;5081425;28;20047;-66
2024/01/22 11:58:27;;;;;;;31.70;6.60;;;11.40;99.90;;;;;;5080504;28;20040;-65
2024/01/22 12:00:53;;;;;;;26.73;6.05;;;11.40;99.90;;;;;;5113917;27;20097;-66
2024/01/22 12:03:31;;;;;;;28.48;7.07;;;11.40;99.90;;;;;;5083599;28;20036;-65
2024/01/22 12:06:02;;;;;;;24.85;5.72;;;11.40;99.90;;;;;;5116561;27;20051;-65
2024/01/22 12:08:28;;;;;;;22.45;5.20;;;11.40;99.90;;;;;;5083275;28;20393;-65
2024/01/22 12:11:08;;;;;;;30.80;5.97;;;11.30;99.90;;;;;;5081967;28;20039;-66
2024/01/22 12:13:37;;;;;;;27.95;5.80;;;11.30;99.90;;;;;;5083143;28;20036;-65
2024/01/22 12:16:03;;;;;;;19.67;5.10;;;11.30;99.90;;;;;;5082431;28;20055;-65
2024/01/22 12:18:28;;;;;;;21.17;4.82;;;11.20;99.90;;;;;;5079769;28;20047;-65
2024/01/22 12:20:54;;;;;;;25.80;5.53;;;11.30;99.90;;;;;;5113536;27;20035;-65
2024/01/22 12:23:30;;;;;;;22.40;4.78;;;11.30;99.90;;;;;;5079469;28;20577;-65
2024/01/22 12:25:57;;;;;;;16.27;3.95;;;11.20;99.90;;;;;;5076139;28;20047;-66
2024/01/22 12:28:23;;;;;;;25.50;4.95;;;11.10;99.90;;;;;;5078854;28;20153;-65
2024/01/22 12:30:59;;;;;;;20.33;5.07;;;11.20;99.90;;;;;;5110310;27;20132;-65
2024/01/22 12:33:26;;;;;;;16.70;5.22;;;11.10;99.90;;;;;;5079902;28;20037;-66
2024/01/22 12:36:10;;;;;;;24.35;4.90;;;11.10;99.90;;;;;;5064742;28;20042;-65
2024/01/22 12:38:53;;;;;;;21.70;4.15;;;11.00;99.90;;;;;;5063172;28;20044;-65
2024/01/22 12:41:20;;;;;;;17.27;3.47;;;11.00;99.90;;;;;;5077784;28;20050;-65
2024/01/22 12:43:46;;;;;;;20.05;3.60;;;10.80;99.90;;;;;;5079593;28;20040;-65
2024/01/22 12:46:18;;;;;;;22.48;4.45;;;10.80;99.90;;;;;;5112611;27;20075;-65